sensor_id;sensor_type;location;lat;lon;timestamp;pressure;altitude;pressure_sealevel;temperature;humidity
58245;BME280;44550;43.864;25.986;2023-01-25T00:01:41;102934.47;;;1.92;92.09
58245;BME280;44550;43.864;25.986;2023-01-25T00:05:40;102933.56;;;1.92;92.00
58245;BME280;44550;43.864;25.986;2023-01-25T00:09:41;102937.09;;;1.82;93.00
58245;BME280;44550;43.864;25.986;2023-01-25T00:13:41;102935.72;;;1.75;93.64
58245;BME280;44550;43.864;25.986;2023-01-25T00:17:40;102939.34;;;1.77;94.62
58245;BME280;44550;43.864;25.986;2023-01-25T00:21:40;102944.25;;;1.74;94.20
58245;BME280;44550;43.864;25.986;2023-01-25T00:25:41;102942.47;;;1.73;94.82
58245;BME280;44550;43.864;25.986;2023-01-25T00:29:43;102944.22;;;1.62;95.28
58245;BME280;44550;43.864;25.986;2023-01-25T00:33:43;102937.97;;;1.71;95.14
58245;BME280;44550;43.864;25.986;2023-01-25T00:37:50;102938.25;;;1.63;95.89
58245;BME280;44550;43.864;25.986;2023-01-25T00:41:53;102934.19;;;1.77;95.66
58245;BME280;44550;43.864;25.986;2023-01-25T00:45:58;102937.97;;;1.71;96.10
58245;BME280;44550;43.864;25.986;2023-01-25T00:49:58;102932.81;;;1.71;95.62
58245;BME280;44550;43.864;25.986;2023-01-25T00:54:00;102945.09;;;1.63;95.65
58245;BME280;44550;43.864;25.986;2023-01-25T00:58:02;102940.06;;;1.64;96.91
58245;BME280;44550;43.864;25.986;2023-01-25T01:02:02;102935.81;;;1.43;97.97
58245;BME280;44550;43.864;25.986;2023-01-25T01:06:02;102933.22;;;1.43;98.39
58245;BME280;44550;43.864;25.986;2023-01-25T01:10:02;102926.19;;;1.52;97.89
58245;BME280;44550;43.864;25.986;2023-01-25T01:14:03;102929.72;;;1.21;98.26
58245;BME280;44550;43.864;25.986;2023-01-25T01:18:03;102927.19;;;1.10;99.50
58245;BME280;44550;43.864;25.986;2023-01-25T01:22:02;102921.38;;;1.13;100.00
58245;BME280;44550;43.864;25.986;2023-01-25T01:26:02;102923.63;;;0.98;100.00
58245;BME280;44550;43.864;25.986;2023-01-25T01:30:04;102925.69;;;0.92;100.00
58245;BME280;44550;43.864;25.986;2023-01-25T01:34:04;102918.06;;;1.04;100.00
58245;BME280;44550;43.864;25.986;2023-01-25T01:38:03;102917.47;;;0.96;100.00
58245;BME280;44550;43.864;25.986;2023-01-25T01:42:03;102906.91;;;0.93;100.00
58245;BME280;44550;43.864;25.986;2023-01-25T01:46:07;102919.28;;;0.87;100.00
58245;BME280;44550;43.864;25.986;2023-01-25T01:50:12;102918.63;;;0.79;100.00
58245;BME280;44550;43.864;25.986;2023-01-25T01:54:16;102912.06;;;0.93;100.00
58245;BME280;44550;43.864;25.986;2023-01-25T01:58:16;102907.06;;;0.84;100.00
58245;BME280;44550;43.864;25.986;2023-01-25T02:02:21;102902.00;;;0.86;100.00
58245;BME280;44550;43.864;25.986;2023-01-25T02:06:27;102901.63;;;0.91;100.00
58245;BME280;44550;43.864;25.986;2023-01-25T02:10:28;102899.19;;;0.93;100.00
58245;BME280;44550;43.864;25.986;2023-01-25T02:14:29;102898.63;;;0.97;100.00
58245;BME280;44550;43.864;25.986;2023-01-25T02:18:31;102898.75;;;0.99;100.00
58245;BME280;44550;43.864;25.986;2023-01-25T02:22:34;102891.00;;;0.99;100.00
58245;BME280;44550;43.864;25.986;2023-01-25T02:26:41;102881.84;;;1.02;100.00
58245;BME280;44550;43.864;25.986;2023-01-25T02:30:42;102884.16;;;1.09;100.00
58245;BME280;44550;43.864;25.986;2023-01-25T02:34:44;102881.16;;;1.15;100.00
58245;BME280;44550;43.864;25.986;2023-01-25T02:38:46;102879.91;;;1.32;100.00
58245;BME280;44550;43.864;25.986;2023-01-25T02:42:48;102878.84;;;1.40;100.00
58245;BME280;44550;43.864;25.986;2023-01-25T02:46:48;102881.13;;;1.47;100.00
58245;BME280;44550;43.864;25.986;2023-01-25T02:50:50;102885.00;;;1.42;100.00
58245;BME280;44550;43.864;25.986;2023-01-25T02:54:49;102884.72;;;1.49;100.00
58245;BME280;44550;43.864;25.986;2023-01-25T02:58:51;102877.66;;;1.47;99.00
58245;BME280;44550;43.864;25.986;2023-01-25T03:02:50;102875.06;;;1.47;96.58
58245;BME280;44550;43.864;25.986;2023-01-25T03:06:52;102876.56;;;1.33;93.38
58245;BME280;44550;43.864;25.986;2023-01-25T03:10:54;102886.50;;;1.28;92.46
58245;BME280;44550;43.864;25.986;2023-01-25T03:14:56;102887.28;;;1.27;91.57
58245;BME280;44550;43.864;25.986;2023-01-25T03:18:56;102888.78;;;1.13;92.00
58245;BME280;44550;43.864;25.986;2023-01-25T03:22:56;102874.63;;;1.08;92.24
58245;BME280;44550;43.864;25.986;2023-01-25T03:26:56;102876.94;;;1.05;93.14
58245;BME280;44550;43.864;25.986;2023-01-25T03:31:17;102882.97;;;1.16;93.13
58245;BME280;44550;43.864;25.986;2023-01-25T03:35:16;102879.97;;;1.22;91.03
58245;BME280;44550;43.864;25.986;2023-01-25T03:39:16;102871.75;;;1.15;90.09
58245;BME280;44550;43.864;25.986;2023-01-25T03:43:16;102871.75;;;1.15;90.82
58245;BME280;44550;43.864;25.986;2023-01-25T03:47:25;102870.31;;;1.19;90.52
58245;BME280;44550;43.864;25.986;2023-01-25T03:51:27;102873.75;;;1.30;89.69
58245;BME280;44550;43.864;25.986;2023-01-25T03:55:27;102869.84;;;1.13;88.37
58245;BME280;44550;43.864;25.986;2023-01-25T03:59:28;102875.66;;;1.32;89.52
58245;BME280;44550;43.864;25.986;2023-01-25T04:03:29;102874.34;;;1.37;88.46
58245;BME280;44550;43.864;25.986;2023-01-25T04:07:30;102882.94;;;1.26;88.44
58245;BME280;44550;43.864;25.986;2023-01-25T04:11:30;102882.97;;;1.38;88.72
58245;BME280;44550;43.864;25.986;2023-01-25T04:15:30;102872.66;;;1.60;89.26
58245;BME280;44550;43.864;25.986;2023-01-25T04:19:33;102879.06;;;1.65;87.99
58245;BME280;44550;43.864;25.986;2023-01-25T04:23:33;102885.88;;;1.86;87.07
58245;BME280;44550;43.864;25.986;2023-01-25T04:27:33;102875.81;;;2.01;87.18
58245;BME280;44550;43.864;25.986;2023-01-25T04:31:34;102878.72;;;1.94;87.71
58245;BME280;44550;43.864;25.986;2023-01-25T04:35:36;102882.50;;;1.76;87.20
58245;BME280;44550;43.864;25.986;2023-01-25T04:39:37;102895.78;;;1.70;87.85
58245;BME280;44550;43.864;25.986;2023-01-25T04:43:37;102896.41;;;1.56;87.67
58245;BME280;44550;43.864;25.986;2023-01-25T04:47:37;102894.66;;;1.45;88.59
58245;BME280;44550;43.864;25.986;2023-01-25T04:51:38;102900.84;;;1.47;89.47
58245;BME280;44550;43.864;25.986;2023-01-25T04:55:38;102895.16;;;1.51;89.74
58245;BME280;44550;43.864;25.986;2023-01-25T04:59:37;102893.88;;;1.68;89.25
58245;BME280;44550;43.864;25.986;2023-01-25T05:03:37;102896.94;;;1.74;88.30
58245;BME280;44550;43.864;25.986;2023-01-25T05:07:39;102892.84;;;1.65;88.49
58245;BME280;44550;43.864;25.986;2023-01-25T05:11:39;102893.41;;;1.61;88.20
58245;BME280;44550;43.864;25.986;2023-01-25T05:15:38;102885.41;;;1.58;87.81
58245;BME280;44550;43.864;25.986;2023-01-25T05:19:37;102886.53;;;1.50;87.74
58245;BME280;44550;43.864;25.986;2023-01-25T05:23:39;102880.00;;;1.77;85.75
58245;BME280;44550;43.864;25.986;2023-01-25T05:27:38;102886.97;;;1.78;85.98
58245;BME280;44550;43.864;25.986;2023-01-25T05:31:42;102887.94;;;1.69;85.91
58245;BME280;44550;43.864;25.986;2023-01-25T05:35:41;102886.38;;;1.49;86.20
58245;BME280;44550;43.864;25.986;2023-01-25T05:39:43;102887.34;;;1.39;87.85
58245;BME280;44550;43.864;25.986;2023-01-25T05:43:43;102894.44;;;1.20;88.30
58245;BME280;44550;43.864;25.986;2023-01-25T05:47:50;102897.69;;;1.07;88.53
58245;BME280;44550;43.864;25.986;2023-01-25T05:51:50;102893.59;;;1.53;87.62
58245;BME280;44550;43.864;25.986;2023-01-25T05:55:52;102896.44;;;1.68;85.82
58245;BME280;44550;43.864;25.986;2023-01-25T05:59:52;102895.66;;;1.69;85.93
58245;BME280;44550;43.864;25.986;2023-01-25T06:03:51;102901.47;;;1.88;85.20
58245;BME280;44550;43.864;25.986;2023-01-25T06:07:51;102901.44;;;2.10;83.93
58245;BME280;44550;43.864;25.986;2023-01-25T06:11:54;102900.44;;;2.20;83.10
58245;BME280;44550;43.864;25.986;2023-01-25T06:15:54;102896.75;;;2.28;82.56
58245;BME280;44550;43.864;25.986;2023-01-25T06:19:57;102910.34;;;2.37;81.64
58245;BME280;44550;43.864;25.986;2023-01-25T06:23:57;102900.44;;;2.31;81.72
58245;BME280;44550;43.864;25.986;2023-01-25T06:27:59;102903.81;;;2.19;81.33
58245;BME280;44550;43.864;25.986;2023-01-25T06:31:58;102913.22;;;2.18;80.88
58245;BME280;44550;43.864;25.986;2023-01-25T06:35:58;102913.06;;;2.05;81.79
58245;BME280;44550;43.864;25.986;2023-01-25T06:39:57;102917.31;;;1.93;80.82
58245;BME280;44550;43.864;25.986;2023-01-25T06:43:58;102915.94;;;1.86;80.87
58245;BME280;44550;43.864;25.986;2023-01-25T06:48:00;102916.78;;;1.75;82.13
58245;BME280;44550;43.864;25.986;2023-01-25T06:52:02;102910.88;;;1.87;82.89
58245;BME280;44550;43.864;25.986;2023-01-25T06:56:03;102912.66;;;1.77;82.67
58245;BME280;44550;43.864;25.986;2023-01-25T07:00:05;102907.31;;;1.85;82.93
58245;BME280;44550;43.864;25.986;2023-01-25T07:04:05;102922.34;;;1.91;83.29
58245;BME280;44550;43.864;25.986;2023-01-25T07:08:04;102920.31;;;1.87;82.99
58245;BME280;44550;43.864;25.986;2023-01-25T07:12:04;102929.56;;;1.73;82.77
58245;BME280;44550;43.864;25.986;2023-01-25T07:16:10;102929.03;;;1.33;84.58
58245;BME280;44550;43.864;25.986;2023-01-25T07:20:10;102931.19;;;1.61;85.13
58245;BME280;44550;43.864;25.986;2023-01-25T07:24:09;102933.38;;;1.78;84.85
58245;BME280;44550;43.864;25.986;2023-01-25T07:28:11;102929.59;;;1.85;83.95
58245;BME280;44550;43.864;25.986;2023-01-25T07:32:13;102927.41;;;1.68;83.87
58245;BME280;44550;43.864;25.986;2023-01-25T07:36:12;102925.84;;;1.70;84.03
58245;BME280;44550;43.864;25.986;2023-01-25T07:40:12;102925.06;;;1.71;84.01
58245;BME280;44550;43.864;25.986;2023-01-25T07:44:11;102926.41;;;1.99;83.49
58245;BME280;44550;43.864;25.986;2023-01-25T07:48:14;102933.53;;;2.14;82.45
58245;BME280;44550;43.864;25.986;2023-01-25T07:52:13;102929.91;;;2.11;81.76
58245;BME280;44550;43.864;25.986;2023-01-25T07:56:15;102932.06;;;2.17;81.66
58245;BME280;44550;43.864;25.986;2023-01-25T08:00:15;102940.09;;;1.98;82.13
58245;BME280;44550;43.864;25.986;2023-01-25T08:04:17;102945.03;;;1.73;82.39
58245;BME280;44550;43.864;25.986;2023-01-25T08:08:16;102936.47;;;1.62;84.18
58245;BME280;44550;43.864;25.986;2023-01-25T08:12:16;102937.47;;;1.64;82.72
58245;BME280;44550;43.864;25.986;2023-01-25T08:16:16;102945.22;;;1.86;82.46
58245;BME280;44550;43.864;25.986;2023-01-25T08:20:18;102933.75;;;1.83;82.35
58245;BME280;44550;43.864;25.986;2023-01-25T08:24:19;102933.75;;;1.61;83.42
58245;BME280;44550;43.864;25.986;2023-01-25T08:28:21;102929.97;;;1.46;82.62
58245;BME280;44550;43.864;25.986;2023-01-25T08:32:20;102929.44;;;1.50;82.63
58245;BME280;44550;43.864;25.986;2023-01-25T08:36:24;102920.81;;;1.49;83.24
58245;BME280;44550;43.864;25.986;2023-01-25T08:40:23;102923.19;;;1.58;82.97
58245;BME280;44550;43.864;25.986;2023-01-25T08:44:23;102919.84;;;1.59;82.27
58245;BME280;44550;43.864;25.986;2023-01-25T08:48:24;102915.56;;;1.81;81.75
58245;BME280;44550;43.864;25.986;2023-01-25T08:52:31;102918.16;;;1.81;82.05
58245;BME280;44550;43.864;25.986;2023-01-25T08:56:32;102920.06;;;1.84;81.80
58245;BME280;44550;43.864;25.986;2023-01-25T09:00:35;102912.75;;;1.78;82.43
58245;BME280;44550;43.864;25.986;2023-01-25T09:04:35;102916.09;;;1.99;82.17
58245;BME280;44550;43.864;25.986;2023-01-25T09:08:37;102918.28;;;1.83;81.34
58245;BME280;44550;43.864;25.986;2023-01-25T09:12:37;102904.75;;;1.97;81.34
58245;BME280;44550;43.864;25.986;2023-01-25T09:16:36;102898.50;;;2.05;80.83
58245;BME280;44550;43.864;25.986;2023-01-25T09:20:37;102894.72;;;2.12;81.38
58245;BME280;44550;43.864;25.986;2023-01-25T09:24:39;102895.78;;;1.92;80.96
58245;BME280;44550;43.864;25.986;2023-01-25T09:28:40;102889.56;;;2.24;80.71
58245;BME280;44550;43.864;25.986;2023-01-25T09:32:40;102888.44;;;2.20;80.52
58245;BME280;44550;43.864;25.986;2023-01-25T09:36:40;102880.41;;;1.94;80.45
58245;BME280;44550;43.864;25.986;2023-01-25T09:40:43;102871.13;;;2.07;80.62
58245;BME280;44550;43.864;25.986;2023-01-25T09:44:50;102871.28;;;1.87;79.81
58245;BME280;44550;43.864;25.986;2023-01-25T09:48:54;102865.31;;;1.76;81.43
58245;BME280;44550;43.864;25.986;2023-01-25T09:53:24;102863.88;;;1.80;80.39
58245;BME280;44550;43.864;25.986;2023-01-25T09:57:29;102856.69;;;1.76;80.80
58245;BME280;44550;43.864;25.986;2023-01-25T10:01:33;102843.38;;;1.93;81.04
58245;BME280;44550;43.864;25.986;2023-01-25T10:05:39;102845.69;;;2.12;80.75
58245;BME280;44550;43.864;25.986;2023-01-25T10:09:39;102838.81;;;2.13;80.36
58245;BME280;44550;43.864;25.986;2023-01-25T10:13:43;102834.44;;;2.00;80.58
58245;BME280;44550;43.864;25.986;2023-01-25T10:17:42;102830.16;;;2.00;81.29
58245;BME280;44550;43.864;25.986;2023-01-25T10:21:42;102825.47;;;2.06;80.80
58245;BME280;44550;43.864;25.986;2023-01-25T10:25:43;102819.19;;;2.03;80.54
58245;BME280;44550;43.864;25.986;2023-01-25T10:29:45;102820.31;;;2.18;80.70
58245;BME280;44550;43.864;25.986;2023-01-25T10:33:47;102808.09;;;2.27;79.75
58245;BME280;44550;43.864;25.986;2023-01-25T10:37:46;102807.97;;;2.26;79.65
58245;BME280;44550;43.864;25.986;2023-01-25T10:41:46;102804.38;;;2.24;80.06
58245;BME280;44550;43.864;25.986;2023-01-25T10:45:50;102792.38;;;2.24;80.41
58245;BME280;44550;43.864;25.986;2023-01-25T10:49:49;102782.50;;;2.30;79.74
58245;BME280;44550;43.864;25.986;2023-01-25T10:53:53;102770.59;;;2.44;79.26
58245;BME280;44550;43.864;25.986;2023-01-25T10:57:57;102765.78;;;2.49;79.89
58245;BME280;44550;43.864;25.986;2023-01-25T11:01:58;102753.63;;;2.59;80.63
58245;BME280;44550;43.864;25.986;2023-01-25T11:06:27;102739.47;;;2.54;76.93
58245;BME280;44550;43.864;25.986;2023-01-25T11:10:27;102731.53;;;2.40;77.26
58245;BME280;44550;43.864;25.986;2023-01-25T11:14:27;102728.81;;;2.38;78.55
58245;BME280;44550;43.864;25.986;2023-01-25T11:18:29;102719.88;;;2.33;78.61
58245;BME280;44550;43.864;25.986;2023-01-25T11:22:30;102714.03;;;2.24;78.78
58245;BME280;44550;43.864;25.986;2023-01-25T11:26:30;102704.25;;;2.31;79.19
58245;BME280;44550;43.864;25.986;2023-01-25T11:30:30;102698.09;;;2.29;77.88
58245;BME280;44550;43.864;25.986;2023-01-25T11:34:31;102695.25;;;2.50;79.59
58245;BME280;44550;43.864;25.986;2023-01-25T11:38:30;102691.28;;;2.55;78.70
58245;BME280;44550;43.864;25.986;2023-01-25T11:42:32;102688.41;;;2.50;77.97
58245;BME280;44550;43.864;25.986;2023-01-25T11:46:36;102685.25;;;2.54;77.48
58245;BME280;44550;43.864;25.986;2023-01-25T11:50:43;102687.28;;;2.58;77.73
58245;BME280;44550;43.864;25.986;2023-01-25T11:54:47;102678.81;;;2.61;76.91
58245;BME280;44550;43.864;25.986;2023-01-25T11:58:54;102662.50;;;2.49;76.75
58245;BME280;44550;43.864;25.986;2023-01-25T12:03:00;102662.44;;;2.61;78.04
58245;BME280;44550;43.864;25.986;2023-01-25T12:07:08;102662.00;;;2.54;77.17
58245;BME280;44550;43.864;25.986;2023-01-25T12:11:14;102647.00;;;2.49;76.38
58245;BME280;44550;43.864;25.986;2023-01-25T12:15:21;102661.75;;;2.63;76.68
58245;BME280;44550;43.864;25.986;2023-01-25T12:19:28;102651.16;;;2.47;76.62
58245;BME280;44550;43.864;25.986;2023-01-25T12:23:43;102656.91;;;2.31;76.15
58245;BME280;44550;43.864;25.986;2023-01-25T12:27:50;102652.31;;;2.27;76.79
58245;BME280;44550;43.864;25.986;2023-01-25T12:31:56;102650.03;;;2.31;76.30
58245;BME280;44550;43.864;25.986;2023-01-25T12:35:58;102637.50;;;2.24;76.73
58245;BME280;44550;43.864;25.986;2023-01-25T12:40:04;102651.06;;;2.22;76.51
58245;BME280;44550;43.864;25.986;2023-01-25T12:44:11;102640.28;;;2.39;76.65
58245;BME280;44550;43.864;25.986;2023-01-25T12:48:13;102638.84;;;2.31;77.28
58245;BME280;44550;43.864;25.986;2023-01-25T12:52:17;102631.56;;;2.25;77.57
58245;BME280;44550;43.864;25.986;2023-01-25T12:56:24;102637.38;;;2.34;76.76
58245;BME280;44550;43.864;25.986;2023-01-25T13:00:28;102634.91;;;2.36;77.25
58245;BME280;44550;43.864;25.986;2023-01-25T13:04:35;102624.81;;;2.39;76.87
58245;BME280;44550;43.864;25.986;2023-01-25T13:08:46;102618.59;;;2.49;76.42
58245;BME280;44550;43.864;25.986;2023-01-25T13:12:53;102631.97;;;2.43;75.32
58245;BME280;44550;43.864;25.986;2023-01-25T13:16:53;102628.78;;;2.47;75.92
58245;BME280;44550;43.864;25.986;2023-01-25T13:21:11;102636.00;;;2.40;75.63
58245;BME280;44550;43.864;25.986;2023-01-25T13:25:29;102634.00;;;2.35;75.85
58245;BME280;44550;43.864;25.986;2023-01-25T13:33:53;102631.31;;;2.34;76.50
58245;BME280;44550;43.864;25.986;2023-01-25T13:37:55;102630.28;;;2.44;75.78
58245;BME280;44550;43.864;25.986;2023-01-25T13:41:56;102629.16;;;2.40;76.53
58245;BME280;44550;43.864;25.986;2023-01-25T13:45:56;102631.84;;;2.42;76.41
58245;BME280;44550;43.864;25.986;2023-01-25T13:49:58;102623.31;;;2.43;76.28
58245;BME280;44550;43.864;25.986;2023-01-25T13:53:58;102617.19;;;2.29;77.47
58245;BME280;44550;43.864;25.986;2023-01-25T13:58:08;102617.72;;;2.37;77.70
58245;BME280;44550;43.864;25.986;2023-01-25T14:02:11;102622.09;;;2.38;77.02
58245;BME280;44550;43.864;25.986;2023-01-25T14:06:16;102609.66;;;2.32;77.75
58245;BME280;44550;43.864;25.986;2023-01-25T14:10:17;102618.84;;;2.28;78.13
58245;BME280;44550;43.864;25.986;2023-01-25T14:14:19;102613.91;;;2.31;78.83
58245;BME280;44550;43.864;25.986;2023-01-25T14:18:26;102621.88;;;2.34;78.80
58245;BME280;44550;43.864;25.986;2023-01-25T14:22:28;102616.16;;;2.39;78.12
58245;BME280;44550;43.864;25.986;2023-01-25T14:26:28;102614.84;;;2.32;78.03
58245;BME280;44550;43.864;25.986;2023-01-25T14:30:29;102616.41;;;2.30;77.97
58245;BME280;44550;43.864;25.986;2023-01-25T14:34:28;102609.66;;;2.32;78.08
58245;BME280;44550;43.864;25.986;2023-01-25T14:38:32;102609.59;;;2.19;78.97
58245;BME280;44550;43.864;25.986;2023-01-25T14:42:35;102609.91;;;2.11;79.58
58245;BME280;44550;43.864;25.986;2023-01-25T14:46:37;102609.59;;;2.19;79.88
58245;BME280;44550;43.864;25.986;2023-01-25T14:50:39;102608.38;;;2.02;80.24
58245;BME280;44550;43.864;25.986;2023-01-25T14:54:45;102612.63;;;2.13;80.35
58245;BME280;44550;43.864;25.986;2023-01-25T14:58:46;102610.72;;;2.10;80.14
58245;BME280;44550;43.864;25.986;2023-01-25T15:02:56;102603.63;;;2.20;80.36
58245;BME280;44550;43.864;25.986;2023-01-25T15:06:56;102604.63;;;2.22;80.49
58245;BME280;44550;43.864;25.986;2023-01-25T15:11:28;102597.25;;;2.15;80.78
58245;BME280;44550;43.864;25.986;2023-01-25T15:15:51;102599.81;;;2.26;80.30
58245;BME280;44550;43.864;25.986;2023-01-25T15:19:50;102604.84;;;2.25;80.15
58245;BME280;44550;43.864;25.986;2023-01-25T15:23:50;102598.63;;;2.09;80.66
58245;BME280;44550;43.864;25.986;2023-01-25T15:27:51;102605.94;;;2.28;80.82
58245;BME280;44550;43.864;25.986;2023-01-25T15:31:50;102603.63;;;2.20;81.09
58245;BME280;44550;43.864;25.986;2023-01-25T15:35:50;102604.84;;;2.25;81.10
58245;BME280;44550;43.864;25.986;2023-01-25T15:39:49;102596.34;;;2.14;81.06
58245;BME280;44550;43.864;25.986;2023-01-25T16:53:37;102590.53;;;2.05;81.88
58245;BME280;44550;43.864;25.986;2023-01-25T16:57:56;102593.78;;;2.14;81.56
58245;BME280;44550;43.864;25.986;2023-01-25T17:02:32;102588.75;;;2.04;80.82
58245;BME280;44550;43.864;25.986;2023-01-25T17:06:57;102586.41;;;1.95;81.05
58245;BME280;44550;43.864;25.986;2023-01-25T17:11:09;102580.47;;;1.96;81.63
58245;BME280;44550;43.864;25.986;2023-01-25T17:15:12;102582.16;;;1.96;81.53
58245;BME280;44550;43.864;25.986;2023-01-25T17:19:16;102580.56;;;2.09;81.35
58245;BME280;44550;43.864;25.986;2023-01-25T17:23:17;102549.47;;;2.08;80.07
58245;BME280;44550;43.864;25.986;2023-01-25T17:27:21;102581.88;;;2.16;80.87
58245;BME280;44550;43.864;25.986;2023-01-25T17:31:25;102575.56;;;2.24;80.70
58245;BME280;44550;43.864;25.986;2023-01-25T17:35:29;102573.50;;;2.07;81.45
58245;BME280;44550;43.864;25.986;2023-01-25T17:39:30;102588.06;;;2.06;81.03
58245;BME280;44550;43.864;25.986;2023-01-25T17:43:34;102569.00;;;2.04;81.45
58245;BME280;44550;43.864;25.986;2023-01-25T17:47:40;102525.88;;;1.78;81.56
58245;BME280;44550;43.864;25.986;2023-01-25T17:51:43;102563.31;;;2.22;80.95
58245;BME280;44550;43.864;25.986;2023-01-25T17:55:45;102550.03;;;2.16;81.33
58245;BME280;44550;43.864;25.986;2023-01-25T17:59:48;102556.38;;;2.21;81.46
58245;BME280;44550;43.864;25.986;2023-01-25T18:03:51;102548.34;;;2.16;81.03
58245;BME280;44550;43.864;25.986;2023-01-25T18:07:52;102544.44;;;2.09;81.57
58245;BME280;44550;43.864;25.986;2023-01-25T18:11:53;102540.41;;;2.01;82.07
58245;BME280;44550;43.864;25.986;2023-01-25T18:15:59;102550.25;;;2.07;81.79
58245;BME280;44550;43.864;25.986;2023-01-25T18:20:20;102551.59;;;2.14;81.72
58245;BME280;44550;43.864;25.986;2023-01-25T18:24:26;102535.94;;;1.99;82.21
58245;BME280;44550;43.864;25.986;2023-01-25T18:28:35;102540.53;;;1.91;82.61
58245;BME280;44550;43.864;25.986;2023-01-25T18:32:40;102544.59;;;1.87;83.46
58245;BME280;44550;43.864;25.986;2023-01-25T18:36:46;102531.84;;;1.77;83.95
58245;BME280;44550;43.864;25.986;2023-01-25T18:40:47;102530.50;;;1.71;84.51
58245;BME280;44550;43.864;25.986;2023-01-25T18:44:49;102525.44;;;1.72;84.54
58245;BME280;44550;43.864;25.986;2023-01-25T18:48:52;102516.81;;;1.72;84.81
58245;BME280;44550;43.864;25.986;2023-01-25T18:52:52;102518.94;;;1.77;84.92
58245;BME280;44550;43.864;25.986;2023-01-25T18:56:54;102509.28;;;1.75;85.04
58245;BME280;44550;43.864;25.986;2023-01-25T19:01:00;102527.78;;;1.81;85.29
58245;BME280;44550;43.864;25.986;2023-01-25T19:05:07;102483.19;;;1.70;85.24
58245;BME280;44550;43.864;25.986;2023-01-25T19:09:08;102508.31;;;2.09;84.36
58245;BME280;44550;43.864;25.986;2023-01-25T19:13:20;102500.06;;;1.90;85.52
58245;BME280;44550;43.864;25.986;2023-01-25T19:17:21;102493.53;;;1.95;85.34
58245;BME280;44550;43.864;25.986;2023-01-25T19:21:25;102491.69;;;1.81;86.21
58245;BME280;44550;43.864;25.986;2023-01-25T19:25:26;102495.63;;;1.76;86.63
58245;BME280;44550;43.864;25.986;2023-01-25T19:29:27;102491.22;;;1.86;86.37
58245;BME280;44550;43.864;25.986;2023-01-25T19:33:28;102478.31;;;1.86;86.02
58245;BME280;44550;43.864;25.986;2023-01-25T19:37:36;102476.41;;;1.84;86.30
58245;BME280;44550;43.864;25.986;2023-01-25T19:41:42;102432.34;;;1.56;86.07
58245;BME280;44550;43.864;25.986;2023-01-25T19:45:43;102480.03;;;1.74;86.38
58245;BME280;44550;43.864;25.986;2023-01-25T19:49:44;102483.06;;;1.80;86.30
58245;BME280;44550;43.864;25.986;2023-01-25T19:53:55;102477.53;;;1.87;86.20
58245;BME280;44550;43.864;25.986;2023-01-25T19:57:57;102456.25;;;1.78;85.85
58245;BME280;44550;43.864;25.986;2023-01-25T20:02:07;102482.69;;;1.87;85.73
58245;BME280;44550;43.864;25.986;2023-01-25T20:06:10;102478.19;;;1.85;86.23
58245;BME280;44550;43.864;25.986;2023-01-25T20:10:21;102474.50;;;1.81;86.83
58245;BME280;44550;43.864;25.986;2023-01-25T20:14:22;102465.81;;;1.68;86.82
58245;BME280;44550;43.864;25.986;2023-01-25T20:18:23;102472.88;;;1.70;87.17
58245;BME280;44550;43.864;25.986;2023-01-25T20:22:24;102463.22;;;1.68;87.15
58245;BME280;44550;43.864;25.986;2023-01-25T20:26:32;102467.50;;;1.67;87.41
58245;BME280;44550;43.864;25.986;2023-01-25T20:30:34;102462.78;;;1.61;87.32
58245;BME280;44550;43.864;25.986;2023-01-25T20:34:35;102467.19;;;1.62;87.51
58245;BME280;44550;43.864;25.986;2023-01-25T20:38:36;102460.63;;;1.79;86.74
58245;BME280;44550;43.864;25.986;2023-01-25T20:42:39;102460.97;;;1.72;86.44
58245;BME280;44550;43.864;25.986;2023-01-25T20:46:41;102453.41;;;1.50;87.52
58245;BME280;44550;43.864;25.986;2023-01-25T20:50:42;102456.81;;;1.49;87.80
58245;BME280;44550;43.864;25.986;2023-01-25T20:54:45;102449.06;;;1.49;88.30
58245;BME280;44550;43.864;25.986;2023-01-25T20:58:49;102437.69;;;1.59;87.97
58245;BME280;44550;43.864;25.986;2023-01-25T21:02:50;102432.97;;;1.65;87.75
58245;BME280;44550;43.864;25.986;2023-01-25T21:06:50;102436.34;;;1.64;87.91
58245;BME280;44550;43.864;25.986;2023-01-25T21:10:52;102434.00;;;1.55;88.44
58245;BME280;44550;43.864;25.986;2023-01-25T21:14:56;102426.47;;;1.58;88.63
58245;BME280;44550;43.864;25.986;2023-01-25T21:18:58;102422.13;;;1.57;88.58
58245;BME280;44550;43.864;25.986;2023-01-25T21:23:01;102425.16;;;1.52;88.71
58245;BME280;44550;43.864;25.986;2023-01-25T21:27:01;102419.03;;;1.50;89.06
58245;BME280;44550;43.864;25.986;2023-01-25T21:31:08;102420.28;;;1.43;89.50
58245;BME280;44550;43.864;25.986;2023-01-25T21:35:09;102411.88;;;1.34;89.91
58245;BME280;44550;43.864;25.986;2023-01-25T21:39:10;102412.34;;;1.28;90.91
58245;BME280;44550;43.864;25.986;2023-01-25T21:43:11;102409.38;;;1.47;90.36
58245;BME280;44550;43.864;25.986;2023-01-25T21:47:16;102406.38;;;1.41;90.73
58245;BME280;44550;43.864;25.986;2023-01-25T21:51:27;102419.03;;;1.38;91.08
58245;BME280;44550;43.864;25.986;2023-01-25T21:55:44;102416.72;;;1.29;91.34
58245;BME280;44550;43.864;25.986;2023-01-25T21:59:45;102410.44;;;1.26;92.17
58245;BME280;44550;43.864;25.986;2023-01-25T22:03:48;102390.16;;;1.18;92.39
58245;BME280;44550;43.864;25.986;2023-01-25T22:07:49;102403.94;;;1.19;93.03
58245;BME280;44550;43.864;25.986;2023-01-25T22:11:52;102381.66;;;1.20;93.22
58245;BME280;44550;43.864;25.986;2023-01-25T22:15:58;102393.19;;;1.25;93.45
58245;BME280;44550;43.864;25.986;2023-01-25T22:20:01;102372.34;;;1.22;93.45
58245;BME280;44550;43.864;25.986;2023-01-25T22:24:03;102376.84;;;1.24;93.40